Grand Forks International Airport Grand Forks US
ICAO: KGFK
IATA: GFK
Category: Medium
Scheduled Services: Yes

Elevation: 845 ft
TransAlt. 18000 ft.

Airport Communications:
APP/DEP:118.1
ATIS:119.4
CTAF:118.4
GND:124.575
RDO:122.2
Grand Forks Tower:118.4
UNICOM:122.95

KGFK Zoom In..

Runways:

(A) RW 09L length 4206 ft width 100 ft
---- / hdg 84

(B) RW 09R length 3300 ft width 60 ft
---- / hdg 84

(C) RW 17L length 3901 ft width 75 ft
---- / hdg 174

(D) RW 17R length 7351 ft width 150 ft
---- / hdg 174

(E) RW 27L length 3300 ft width 60 ft
---- / hdg 264

(F) RW 27R length 4206 ft width 100 ft
---- / hdg 264

(G) RW 35L length 7351 ft width 150 ft
ILS 109.10 / hdg 354

(H) RW 35R length 3901 ft width 75 ft
---- / hdg 354

Location; KGFK
Day. 22 / Time. 23.53 Zulu
* Altimeter: 30.08
* Temperature: 4/° c. 39.2°f.
* Wind from: 060° Speed 09 kn.
Dewpoint: 06° c.
Visibility: 10 Statute Miles.
Clouds: Overcast 1600 ft.

KGFK 222353Z 06009KT 10SM OVC016 M04/M07 A3008 RMK AO2 SLP201 4/006 T10391067 11028 21039 51018


Wind From 060°
Speed 09 kn.

YouTube Music Video
 
jpsmedia.com for Web Design  worldairports.se 2018   terms of use